sensor_id;sensor_type;location;lat;lon;timestamp;pressure;altitude;pressure_sealevel;temperature;humidity
76794;BME280;65745;50.278;18.192;2022-12-08T00:02:27;99125.67;;;4.94;65.02
76794;BME280;65745;50.278;18.192;2022-12-08T00:05:07;99125.71;;;4.90;65.13
76794;BME280;65745;50.278;18.192;2022-12-08T00:07:57;99126.44;;;4.86;65.09
76794;BME280;65745;50.278;18.192;2022-12-08T00:10:48;99125.98;;;4.83;64.98
76794;BME280;65745;50.278;18.192;2022-12-08T00:13:20;99127.75;;;4.79;64.99
76794;BME280;65745;50.278;18.192;2022-12-08T00:15:54;99131.58;;;4.76;65.18
76794;BME280;65745;50.278;18.192;2022-12-08T00:18:30;99135.30;;;4.75;65.19
76794;BME280;65745;50.278;18.192;2022-12-08T00:21:03;99135.76;;;4.73;65.18
76794;BME280;65745;50.278;18.192;2022-12-08T00:23:35;99136.26;;;4.72;65.30
76794;BME280;65745;50.278;18.192;2022-12-08T00:26:08;99140.08;;;4.75;65.42
76794;BME280;65745;50.278;18.192;2022-12-08T00:28:40;99144.34;;;4.85;65.56
76794;BME280;65745;50.278;18.192;2022-12-08T00:31:13;99142.31;;;4.92;65.47
76794;BME280;65745;50.278;18.192;2022-12-08T00:33:45;99141.44;;;4.96;65.44
76794;BME280;65745;50.278;18.192;2022-12-08T00:36:17;99144.42;;;5.00;65.30
76794;BME280;65745;50.278;18.192;2022-12-08T00:38:49;99144.68;;;5.03;65.15
76794;BME280;65745;50.278;18.192;2022-12-08T00:41:23;99146.96;;;5.05;65.31
76794;BME280;65745;50.278;18.192;2022-12-08T00:44:11;99145.29;;;5.05;65.27
76794;BME280;65745;50.278;18.192;2022-12-08T00:46:44;99145.12;;;5.06;65.34
76794;BME280;65745;50.278;18.192;2022-12-08T00:49:17;99145.96;;;5.05;65.14
76794;BME280;65745;50.278;18.192;2022-12-08T00:51:50;99148.72;;;5.01;65.07
76794;BME280;65745;50.278;18.192;2022-12-08T00:54:22;99156.59;;;5.01;65.03
76794;BME280;65745;50.278;18.192;2022-12-08T00:56:55;99156.19;;;4.99;65.25
76794;BME280;65745;50.278;18.192;2022-12-08T00:59:27;99158.73;;;4.99;65.18
76794;BME280;65745;50.278;18.192;2022-12-08T01:01:59;99158.00;;;4.97;65.30
76794;BME280;65745;50.278;18.192;2022-12-08T01:04:32;99157.96;;;4.96;65.42
76794;BME280;65745;50.278;18.192;2022-12-08T01:07:05;99156.20;;;4.94;65.49
76794;BME280;65745;50.278;18.192;2022-12-08T01:09:37;99159.54;;;4.92;65.50
76794;BME280;65745;50.278;18.192;2022-12-08T01:12:09;99160.05;;;4.92;65.61
76794;BME280;65745;50.278;18.192;2022-12-08T01:14:42;99163.91;;;4.95;65.38
76794;BME280;65745;50.278;18.192;2022-12-08T01:17:14;99166.36;;;4.97;65.37
76794;BME280;65745;50.278;18.192;2022-12-08T01:19:46;99168.30;;;5.00;65.34
76794;BME280;65745;50.278;18.192;2022-12-08T01:22:18;99170.77;;;5.02;65.39
76794;BME280;65745;50.278;18.192;2022-12-08T01:24:51;99171.64;;;5.03;65.55
76794;BME280;65745;50.278;18.192;2022-12-08T01:27:23;99172.48;;;5.02;65.77
76794;BME280;65745;50.278;18.192;2022-12-08T01:29:55;99169.86;;;5.00;65.60
76794;BME280;65745;50.278;18.192;2022-12-08T01:32:27;99164.52;;;4.99;65.86
76794;BME280;65745;50.278;18.192;2022-12-08T01:34:59;99163.45;;;4.97;65.83
76794;BME280;65745;50.278;18.192;2022-12-08T01:37:32;99161.90;;;4.96;65.94
76794;BME280;65745;50.278;18.192;2022-12-08T01:40:07;99160.66;;;4.95;65.90
76794;BME280;65745;50.278;18.192;2022-12-08T01:42:40;99159.09;;;4.94;66.09
76794;BME280;65745;50.278;18.192;2022-12-08T01:45:19;99160.11;;;4.94;65.95
76794;BME280;65745;50.278;18.192;2022-12-08T01:47:54;99155.80;;;4.92;66.00
76794;BME280;65745;50.278;18.192;2022-12-08T01:50:29;99152.02;;;4.91;65.91
76794;BME280;65745;50.278;18.192;2022-12-08T01:53:06;99148.95;;;4.92;65.77
76794;BME280;65745;50.278;18.192;2022-12-08T01:55:42;99152.34;;;4.96;65.58
76794;BME280;65745;50.278;18.192;2022-12-08T01:58:17;99152.55;;;5.09;65.45
76794;BME280;65745;50.278;18.192;2022-12-08T02:00:52;99150.45;;;5.19;65.38
76794;BME280;65745;50.278;18.192;2022-12-08T02:03:28;99144.66;;;5.25;65.11
76794;BME280;65745;50.278;18.192;2022-12-08T02:06:02;99144.52;;;5.33;64.94
76794;BME280;65745;50.278;18.192;2022-12-08T02:08:36;99142.14;;;5.39;64.46
76794;BME280;65745;50.278;18.192;2022-12-08T02:11:11;99139.84;;;5.42;64.68
76794;BME280;65745;50.278;18.192;2022-12-08T02:13:44;99135.97;;;5.43;64.40
76794;BME280;65745;50.278;18.192;2022-12-08T02:16:27;99138.40;;;5.45;64.25
76794;BME280;65745;50.278;18.192;2022-12-08T02:19:26;99138.94;;;5.46;64.01
76794;BME280;65745;50.278;18.192;2022-12-08T02:22:08;99139.50;;;5.48;63.66
76794;BME280;65745;50.278;18.192;2022-12-08T02:24:49;99138.14;;;5.48;63.87
76794;BME280;65745;50.278;18.192;2022-12-08T02:27:40;99135.55;;;5.47;64.08
76794;BME280;65745;50.278;18.192;2022-12-08T02:30:24;99134.19;;;5.47;63.94
76794;BME280;65745;50.278;18.192;2022-12-08T02:33:23;99136.01;;;5.45;64.57
76794;BME280;65745;50.278;18.192;2022-12-08T02:36:00;99136.64;;;5.43;64.33
76794;BME280;65745;50.278;18.192;2022-12-08T02:38:46;99135.94;;;5.42;64.39
76794;BME280;65745;50.278;18.192;2022-12-08T02:41:35;99141.54;;;5.41;64.52
76794;BME280;65745;50.278;18.192;2022-12-08T02:44:15;99140.52;;;5.41;64.82
76794;BME280;65745;50.278;18.192;2022-12-08T02:46:51;99144.57;;;5.40;65.02
76794;BME280;65745;50.278;18.192;2022-12-08T02:49:29;99145.35;;;5.37;65.52
76794;BME280;65745;50.278;18.192;2022-12-08T02:52:44;99147.86;;;5.36;65.50
76794;BME280;65745;50.278;18.192;2022-12-08T02:55:25;99149.45;;;5.32;65.55
76794;BME280;65745;50.278;18.192;2022-12-08T02:58:17;99151.79;;;5.30;65.23
76794;BME280;65745;50.278;18.192;2022-12-08T03:01:04;99152.61;;;5.29;64.88
76794;BME280;65745;50.278;18.192;2022-12-08T03:03:52;99151.38;;;5.27;65.31
76794;BME280;65745;50.278;18.192;2022-12-08T03:06:33;99151.56;;;5.28;65.36
76794;BME280;65745;50.278;18.192;2022-12-08T03:09:12;99146.21;;;5.26;65.38
76794;BME280;65745;50.278;18.192;2022-12-08T03:11:50;99146.85;;;5.25;65.34
76794;BME280;65745;50.278;18.192;2022-12-08T03:14:26;99146.52;;;5.25;65.50
76794;BME280;65745;50.278;18.192;2022-12-08T03:17:00;99142.44;;;5.25;65.02
76794;BME280;65745;50.278;18.192;2022-12-08T03:19:36;99145.73;;;5.27;65.18
76794;BME280;65745;50.278;18.192;2022-12-08T03:22:11;99146.27;;;5.28;65.17
76794;BME280;65745;50.278;18.192;2022-12-08T03:24:45;99147.77;;;5.27;65.32
76794;BME280;65745;50.278;18.192;2022-12-08T03:27:19;99150.27;;;5.25;65.50
76794;BME280;65745;50.278;18.192;2022-12-08T03:29:55;99149.38;;;5.23;65.38
76794;BME280;65745;50.278;18.192;2022-12-08T03:32:32;99146.76;;;5.21;65.41
76794;BME280;65745;50.278;18.192;2022-12-08T03:35:08;99144.20;;;5.21;65.36
76794;BME280;65745;50.278;18.192;2022-12-08T03:37:42;99140.05;;;5.31;65.38
76794;BME280;65745;50.278;18.192;2022-12-08T03:40:18;99135.39;;;5.36;65.55
76794;BME280;65745;50.278;18.192;2022-12-08T03:42:51;99138.75;;;5.40;65.23
76794;BME280;65745;50.278;18.192;2022-12-08T03:45:23;99133.61;;;5.45;64.98
76794;BME280;65745;50.278;18.192;2022-12-08T03:47:55;99124.86;;;5.50;64.75
76794;BME280;65745;50.278;18.192;2022-12-08T03:50:28;99122.87;;;5.52;64.53
76794;BME280;65745;50.278;18.192;2022-12-08T03:53:00;99126.33;;;5.53;64.33
76794;BME280;65745;50.278;18.192;2022-12-08T03:55:32;99125.66;;;5.54;64.25
76794;BME280;65745;50.278;18.192;2022-12-08T03:58:05;99129.25;;;5.54;64.12
76794;BME280;65745;50.278;18.192;2022-12-08T04:00:38;99132.13;;;5.53;64.32
76794;BME280;65745;50.278;18.192;2022-12-08T04:03:11;99133.09;;;5.51;64.22
76794;BME280;65745;50.278;18.192;2022-12-08T04:05:43;99135.30;;;5.50;63.93
76794;BME280;65745;50.278;18.192;2022-12-08T04:08:15;99132.91;;;5.51;63.79
76794;BME280;65745;50.278;18.192;2022-12-08T04:10:48;99129.51;;;5.51;63.98
76794;BME280;65745;50.278;18.192;2022-12-08T04:13:21;99126.23;;;5.50;63.87
76794;BME280;65745;50.278;18.192;2022-12-08T04:15:53;99121.59;;;5.49;63.98
76794;BME280;65745;50.278;18.192;2022-12-08T04:18:25;99121.54;;;5.47;63.90
76794;BME280;65745;50.278;18.192;2022-12-08T04:20:57;99124.27;;;5.46;63.60
76794;BME280;65745;50.278;18.192;2022-12-08T04:23:29;99121.34;;;5.46;63.86
76794;BME280;65745;50.278;18.192;2022-12-08T04:26:02;99122.82;;;5.44;63.69
76794;BME280;65745;50.278;18.192;2022-12-08T04:28:34;99123.33;;;5.44;63.71
76794;BME280;65745;50.278;18.192;2022-12-08T04:31:08;99114.45;;;5.44;63.73
76794;BME280;65745;50.278;18.192;2022-12-08T04:33:40;99114.27;;;5.44;63.59
76794;BME280;65745;50.278;18.192;2022-12-08T04:36:13;99118.36;;;5.43;63.52
76794;BME280;65745;50.278;18.192;2022-12-08T04:38:45;99118.86;;;5.42;63.51
76794;BME280;65745;50.278;18.192;2022-12-08T04:41:17;99118.34;;;5.42;63.53
76794;BME280;65745;50.278;18.192;2022-12-08T04:43:49;99115.06;;;5.41;63.62
76794;BME280;65745;50.278;18.192;2022-12-08T04:46:21;99112.13;;;5.40;63.31
76794;BME280;65745;50.278;18.192;2022-12-08T04:48:53;99112.00;;;5.41;63.53
76794;BME280;65745;50.278;18.192;2022-12-08T04:51:26;99111.29;;;5.41;63.46
76794;BME280;65745;50.278;18.192;2022-12-08T04:53:58;99111.29;;;5.41;63.42
76794;BME280;65745;50.278;18.192;2022-12-08T04:56:30;99107.68;;;5.40;63.50
76794;BME280;65745;50.278;18.192;2022-12-08T04:59:02;99105.94;;;5.39;63.73
76794;BME280;65745;50.278;18.192;2022-12-08T05:01:34;99109.86;;;5.38;63.78
76794;BME280;65745;50.278;18.192;2022-12-08T05:04:07;99108.64;;;5.38;63.72
76794;BME280;65745;50.278;18.192;2022-12-08T05:06:40;99114.26;;;5.37;63.69
76794;BME280;65745;50.278;18.192;2022-12-08T05:09:12;99115.76;;;5.36;63.60
76794;BME280;65745;50.278;18.192;2022-12-08T05:11:45;99117.29;;;5.35;63.63
76794;BME280;65745;50.278;18.192;2022-12-08T05:14:19;99120.55;;;5.36;63.66
76794;BME280;65745;50.278;18.192;2022-12-08T05:16:51;99119.04;;;5.37;63.55
76794;BME280;65745;50.278;18.192;2022-12-08T05:19:24;99117.34;;;5.37;63.65
76794;BME280;65745;50.278;18.192;2022-12-08T05:21:56;99121.27;;;5.37;63.62
76794;BME280;65745;50.278;18.192;2022-12-08T05:24:28;99121.63;;;5.37;63.55
76794;BME280;65745;50.278;18.192;2022-12-08T05:27:01;99122.65;;;5.38;63.61
76794;BME280;65745;50.278;18.192;2022-12-08T05:29:33;99125.55;;;5.38;63.66
76794;BME280;65745;50.278;18.192;2022-12-08T05:32:06;99126.42;;;5.39;63.57
76794;BME280;65745;50.278;18.192;2022-12-08T05:34:38;99124.89;;;5.39;63.48
76794;BME280;65745;50.278;18.192;2022-12-08T05:37:11;99119.80;;;5.40;63.34
76794;BME280;65745;50.278;18.192;2022-12-08T05:39:43;99115.02;;;5.40;63.47
76794;BME280;65745;50.278;18.192;2022-12-08T05:42:16;99114.68;;;5.40;63.37
76794;BME280;65745;50.278;18.192;2022-12-08T05:44:54;99116.21;;;5.40;63.42
76794;BME280;65745;50.278;18.192;2022-12-08T05:47:27;99111.79;;;5.40;63.46
76794;BME280;65745;50.278;18.192;2022-12-08T05:50:07;99113.71;;;5.42;63.44
76794;BME280;65745;50.278;18.192;2022-12-08T05:52:39;99118.00;;;5.42;63.24
76794;BME280;65745;50.278;18.192;2022-12-08T05:55:12;99114.60;;;5.43;63.32
76794;BME280;65745;50.278;18.192;2022-12-08T05:57:44;99118.02;;;5.43;63.39
76794;BME280;65745;50.278;18.192;2022-12-08T06:00:18;99117.64;;;5.42;63.54
76794;BME280;65745;50.278;18.192;2022-12-08T06:02:51;99110.88;;;5.38;63.39
76794;BME280;65745;50.278;18.192;2022-12-08T06:05:24;99113.84;;;5.41;63.36
76794;BME280;65745;50.278;18.192;2022-12-08T06:07:56;99114.54;;;5.41;63.42
76794;BME280;65745;50.278;18.192;2022-12-08T06:10:28;99115.21;;;5.41;63.42
76794;BME280;65745;50.278;18.192;2022-12-08T06:13:01;99116.46;;;5.42;63.35
76794;BME280;65745;50.278;18.192;2022-12-08T06:15:34;99116.09;;;5.41;63.21
76794;BME280;65745;50.278;18.192;2022-12-08T06:18:08;99118.21;;;5.32;63.47
76794;BME280;65745;50.278;18.192;2022-12-08T06:20:40;99117.89;;;5.26;63.73
76794;BME280;65745;50.278;18.192;2022-12-08T06:23:12;99118.67;;;5.18;64.03
76794;BME280;65745;50.278;18.192;2022-12-08T06:25:44;99120.39;;;5.13;64.29
76794;BME280;65745;50.278;18.192;2022-12-08T06:28:17;99124.00;;;5.02;64.22
76794;BME280;65745;50.278;18.192;2022-12-08T06:30:49;99126.65;;;4.93;64.19
76794;BME280;65745;50.278;18.192;2022-12-08T06:33:22;99128.61;;;4.85;64.14
76794;BME280;65745;50.278;18.192;2022-12-08T06:35:54;99129.29;;;4.73;64.23
76794;BME280;65745;50.278;18.192;2022-12-08T06:38:30;99139.48;;;4.66;64.48
76794;BME280;65745;50.278;18.192;2022-12-08T06:41:02;99137.11;;;4.61;64.25
76794;BME280;65745;50.278;18.192;2022-12-08T06:43:35;99141.92;;;4.57;64.31
76794;BME280;65745;50.278;18.192;2022-12-08T06:46:10;99147.22;;;4.52;64.28
76794;BME280;65745;50.278;18.192;2022-12-08T06:48:43;99155.48;;;4.49;64.14
76794;BME280;65745;50.278;18.192;2022-12-08T06:51:19;99156.14;;;4.48;64.06
76794;BME280;65745;50.278;18.192;2022-12-08T06:53:53;99151.61;;;4.50;63.89
76794;BME280;65745;50.278;18.192;2022-12-08T06:56:25;99153.70;;;4.47;64.00
76794;BME280;65745;50.278;18.192;2022-12-08T06:58:59;99152.64;;;4.45;64.08
76794;BME280;65745;50.278;18.192;2022-12-08T07:01:32;99153.60;;;4.38;64.17
76794;BME280;65745;50.278;18.192;2022-12-08T07:04:05;99153.16;;;4.35;64.14
76794;BME280;65745;50.278;18.192;2022-12-08T07:06:37;99151.98;;;4.31;64.27
76794;BME280;65745;50.278;18.192;2022-12-08T07:09:10;99149.30;;;4.32;64.34
76794;BME280;65745;50.278;18.192;2022-12-08T07:11:42;99147.45;;;4.33;64.15
76794;BME280;65745;50.278;18.192;2022-12-08T07:14:17;99145.08;;;4.33;64.31
76794;BME280;65745;50.278;18.192;2022-12-08T07:16:54;99145.92;;;4.33;64.14
76794;BME280;65745;50.278;18.192;2022-12-08T07:19:28;99149.46;;;4.32;64.29
76794;BME280;65745;50.278;18.192;2022-12-08T07:22:01;99148.45;;;4.32;64.24
76794;BME280;65745;50.278;18.192;2022-12-08T07:24:33;99145.40;;;4.43;64.54
76794;BME280;65745;50.278;18.192;2022-12-08T07:27:05;99147.45;;;4.48;64.78
76794;BME280;65745;50.278;18.192;2022-12-08T07:29:37;99144.71;;;4.48;65.03
76794;BME280;65745;50.278;18.192;2022-12-08T07:32:09;99145.98;;;4.51;65.06
76794;BME280;65745;50.278;18.192;2022-12-08T07:34:41;99149.72;;;4.50;65.25
76794;BME280;65745;50.278;18.192;2022-12-08T07:37:17;99143.64;;;4.57;65.19
76794;BME280;65745;50.278;18.192;2022-12-08T07:39:49;99145.23;;;4.54;65.29
76794;BME280;65745;50.278;18.192;2022-12-08T07:42:22;99147.93;;;4.53;65.05
76794;BME280;65745;50.278;18.192;2022-12-08T07:44:55;99149.36;;;4.54;64.95
76794;BME280;65745;50.278;18.192;2022-12-08T07:47:27;99149.50;;;4.54;64.89
76794;BME280;65745;50.278;18.192;2022-12-08T07:49:59;99150.27;;;4.52;64.84
76794;BME280;65745;50.278;18.192;2022-12-08T07:52:34;99152.65;;;4.51;64.76
76794;BME280;65745;50.278;18.192;2022-12-08T07:55:08;99154.36;;;4.52;64.70
76794;BME280;65745;50.278;18.192;2022-12-08T07:57:40;99153.88;;;4.52;64.51
76794;BME280;65745;50.278;18.192;2022-12-08T08:00:14;99153.83;;;4.56;64.33
76794;BME280;65745;50.278;18.192;2022-12-08T08:02:47;99150.90;;;4.60;64.20
76794;BME280;65745;50.278;18.192;2022-12-08T08:05:19;99151.46;;;4.67;64.07
76794;BME280;65745;50.278;18.192;2022-12-08T08:07:52;99145.30;;;4.67;64.28
76794;BME280;65745;50.278;18.192;2022-12-08T08:10:26;99147.63;;;4.64;64.58
76794;BME280;65745;50.278;18.192;2022-12-08T08:13:01;99146.02;;;4.68;64.35
76794;BME280;65745;50.278;18.192;2022-12-08T08:15:33;99143.27;;;4.73;64.32
76794;BME280;65745;50.278;18.192;2022-12-08T08:18:06;99142.23;;;4.78;64.12
76794;BME280;65745;50.278;18.192;2022-12-08T08:20:39;99143.55;;;4.83;64.04
76794;BME280;65745;50.278;18.192;2022-12-08T08:23:11;99144.30;;;4.84;64.12
76794;BME280;65745;50.278;18.192;2022-12-08T08:25:43;99146.73;;;4.86;63.72
76794;BME280;65745;50.278;18.192;2022-12-08T08:28:15;99141.11;;;4.81;63.79
76794;BME280;65745;50.278;18.192;2022-12-08T08:30:47;99144.95;;;4.83;63.72
76794;BME280;65745;50.278;18.192;2022-12-08T08:33:20;99143.52;;;4.81;63.87
76794;BME280;65745;50.278;18.192;2022-12-08T08:35:52;99143.40;;;4.78;63.89
76794;BME280;65745;50.278;18.192;2022-12-08T08:38:26;99139.15;;;4.72;64.11
76794;BME280;65745;50.278;18.192;2022-12-08T08:40:59;99141.31;;;4.76;63.87
76794;BME280;65745;50.278;18.192;2022-12-08T08:43:32;99138.30;;;4.72;64.17
76794;BME280;65745;50.278;18.192;2022-12-08T08:46:08;99141.16;;;4.71;64.12
76794;BME280;65745;50.278;18.192;2022-12-08T08:48:41;99143.98;;;4.74;64.07
76794;BME280;65745;50.278;18.192;2022-12-08T08:51:14;99147.10;;;4.70;64.43
76794;BME280;65745;50.278;18.192;2022-12-08T08:53:48;99148.35;;;4.78;64.81
76794;BME280;65745;50.278;18.192;2022-12-08T08:56:21;99144.52;;;4.86;65.07
76794;BME280;65745;50.278;18.192;2022-12-08T08:58:55;99139.51;;;4.95;65.09
76794;BME280;65745;50.278;18.192;2022-12-08T09:01:28;99142.20;;;5.05;65.01
76794;BME280;65745;50.278;18.192;2022-12-08T09:04:01;99141.19;;;5.11;64.98
76794;BME280;65745;50.278;18.192;2022-12-08T09:06:33;99139.98;;;5.11;65.14
76794;BME280;65745;50.278;18.192;2022-12-08T09:09:05;99134.19;;;5.11;65.13
76794;BME280;65745;50.278;18.192;2022-12-08T09:11:37;99132.14;;;5.12;64.84
76794;BME280;65745;50.278;18.192;2022-12-08T09:14:11;99133.48;;;5.17;64.10
76794;BME280;65745;50.278;18.192;2022-12-08T09:16:44;99130.56;;;5.10;64.43
76794;BME280;65745;50.278;18.192;2022-12-08T09:19:17;99130.36;;;5.09;64.36
76794;BME280;65745;50.278;18.192;2022-12-08T09:21:49;99125.02;;;5.07;64.54
76794;BME280;65745;50.278;18.192;2022-12-08T09:24:21;99122.33;;;5.08;64.67
76794;BME280;65745;50.278;18.192;2022-12-08T09:26:53;99116.38;;;5.09;64.27
76794;BME280;65745;50.278;18.192;2022-12-08T09:29:26;99111.79;;;5.10;64.39
76794;BME280;65745;50.278;18.192;2022-12-08T09:32:06;99111.38;;;5.13;64.16
76794;BME280;65745;50.278;18.192;2022-12-08T09:34:38;99102.33;;;5.19;63.83
76794;BME280;65745;50.278;18.192;2022-12-08T09:37:11;99101.30;;;5.19;63.81
76794;BME280;65745;50.278;18.192;2022-12-08T09:39:45;99093.73;;;5.17;63.85
76794;BME280;65745;50.278;18.192;2022-12-08T09:42:29;99088.78;;;5.23;63.77
76794;BME280;65745;50.278;18.192;2022-12-08T09:45:07;99089.27;;;5.28;63.70
76794;BME280;65745;50.278;18.192;2022-12-08T09:47:44;99082.39;;;5.33;63.57
76794;BME280;65745;50.278;18.192;2022-12-08T09:50:26;99078.36;;;5.29;63.64
76794;BME280;65745;50.278;18.192;2022-12-08T09:53:01;99077.83;;;5.29;63.44
76794;BME280;65745;50.278;18.192;2022-12-08T09:55:41;99077.91;;;5.19;63.66
76794;BME280;65745;50.278;18.192;2022-12-08T09:58:20;99074.58;;;5.16;63.55
76794;BME280;65745;50.278;18.192;2022-12-08T10:00:56;99074.15;;;5.19;63.37
76794;BME280;65745;50.278;18.192;2022-12-08T10:03:30;99074.50;;;5.13;63.29
76794;BME280;65745;50.278;18.192;2022-12-08T10:06:06;99078.88;;;5.11;63.32
76794;BME280;65745;50.278;18.192;2022-12-08T10:08:47;99078.52;;;5.11;63.12
76794;BME280;65745;50.278;18.192;2022-12-08T10:11:25;99080.15;;;5.08;63.07
76794;BME280;65745;50.278;18.192;2022-12-08T10:14:05;99076.11;;;5.09;62.95
76794;BME280;65745;50.278;18.192;2022-12-08T10:16:45;99074.96;;;5.30;63.47
76794;BME280;65745;50.278;18.192;2022-12-08T10:19:21;99078.91;;;5.43;63.37
76794;BME280;65745;50.278;18.192;2022-12-08T10:21:54;99075.10;;;5.54;63.50
76794;BME280;65745;50.278;18.192;2022-12-08T10:24:32;99066.78;;;5.56;62.91
76794;BME280;65745;50.278;18.192;2022-12-08T10:27:11;99072.00;;;5.61;62.83
76794;BME280;65745;50.278;18.192;2022-12-08T10:29:43;99069.21;;;5.64;62.65
76794;BME280;65745;50.278;18.192;2022-12-08T10:32:19;99067.02;;;5.65;62.49
76794;BME280;65745;50.278;18.192;2022-12-08T10:35:05;99062.39;;;5.64;62.41
76794;BME280;65745;50.278;18.192;2022-12-08T10:37:38;99058.05;;;5.68;61.93
76794;BME280;65745;50.278;18.192;2022-12-08T10:40:15;99061.39;;;5.66;61.97
76794;BME280;65745;50.278;18.192;2022-12-08T10:42:51;99057.94;;;5.64;61.98
76794;BME280;65745;50.278;18.192;2022-12-08T10:45:26;99057.91;;;5.64;61.63
76794;BME280;65745;50.278;18.192;2022-12-08T10:48:02;99057.98;;;5.60;61.63
76794;BME280;65745;50.278;18.192;2022-12-08T10:50:34;99055.88;;;5.57;61.41
76794;BME280;65745;50.278;18.192;2022-12-08T10:53:14;99055.90;;;5.51;61.48
76794;BME280;65745;50.278;18.192;2022-12-08T10:55:49;99054.48;;;5.49;61.44
76794;BME280;65745;50.278;18.192;2022-12-08T10:58:32;99054.38;;;5.45;61.85
76794;BME280;65745;50.278;18.192;2022-12-08T11:01:08;99053.43;;;5.42;61.82
76794;BME280;65745;50.278;18.192;2022-12-08T11:03:47;99051.70;;;5.41;61.74
76794;BME280;65745;50.278;18.192;2022-12-08T11:06:21;99050.33;;;5.41;61.90
76794;BME280;65745;50.278;18.192;2022-12-08T11:08:56;99047.79;;;5.42;61.75
76794;BME280;65745;50.278;18.192;2022-12-08T11:11:43;99045.94;;;5.42;61.84
76794;BME280;65745;50.278;18.192;2022-12-08T11:14:21;99042.30;;;5.41;61.84
76794;BME280;65745;50.278;18.192;2022-12-08T11:17:01;99040.60;;;5.41;61.77
76794;BME280;65745;50.278;18.192;2022-12-08T11:19:38;99041.16;;;5.42;61.77
76794;BME280;65745;50.278;18.192;2022-12-08T11:22:23;99036.99;;;5.41;61.97
76794;BME280;65745;50.278;18.192;2022-12-08T11:25:07;99037.38;;;5.42;61.89
76794;BME280;65745;50.278;18.192;2022-12-08T11:27:42;99036.17;;;5.42;61.87
76794;BME280;65745;50.278;18.192;2022-12-08T11:30:17;99035.33;;;5.35;62.02
76794;BME280;65745;50.278;18.192;2022-12-08T11:32:52;99033.64;;;5.36;62.11
76794;BME280;65745;50.278;18.192;2022-12-08T11:35:27;99033.45;;;5.35;62.24
76794;BME280;65745;50.278;18.192;2022-12-08T11:38:09;99031.77;;;5.36;62.13
76794;BME280;65745;50.278;18.192;2022-12-08T11:40:53;99034.42;;;5.33;62.27
76794;BME280;65745;50.278;18.192;2022-12-08T11:43:37;99036.41;;;5.37;62.13
76794;BME280;65745;50.278;18.192;2022-12-08T11:46:14;99036.41;;;5.38;62.26
76794;BME280;65745;50.278;18.192;2022-12-08T11:48:51;99034.92;;;5.39;62.16
76794;BME280;65745;50.278;18.192;2022-12-08T11:51:30;99032.95;;;5.36;62.07
76794;BME280;65745;50.278;18.192;2022-12-08T11:54:20;99032.37;;;5.33;61.70
76794;BME280;65745;50.278;18.192;2022-12-08T11:56:56;99031.44;;;5.24;62.11
76794;BME280;65745;50.278;18.192;2022-12-08T11:59:31;99033.23;;;5.21;61.94
76794;BME280;65745;50.278;18.192;2022-12-08T12:02:04;99032.55;;;5.14;61.92
76794;BME280;65745;50.278;18.192;2022-12-08T12:04:40;99031.53;;;5.09;61.96
76794;BME280;65745;50.278;18.192;2022-12-08T12:10:21;99027.41;;;5.02;61.98
76794;BME280;65745;50.278;18.192;2022-12-08T12:13:08;99021.56;;;4.94;62.43
76794;BME280;65745;50.278;18.192;2022-12-08T12:16:25;99018.63;;;4.87;62.93
76794;BME280;65745;50.278;18.192;2022-12-08T12:19:03;99020.64;;;4.85;62.63
76794;BME280;65745;50.278;18.192;2022-12-08T12:21:42;99016.81;;;4.89;63.23
76794;BME280;65745;50.278;18.192;2022-12-08T12:24:18;99016.56;;;4.98;63.57
76794;BME280;65745;50.278;18.192;2022-12-08T12:27:04;99018.96;;;4.98;63.97
76794;BME280;65745;50.278;18.192;2022-12-08T12:29:43;99014.27;;;4.96;64.37
76794;BME280;65745;50.278;18.192;2022-12-08T12:32:24;99019.95;;;4.97;64.34
76794;BME280;65745;50.278;18.192;2022-12-08T12:34:57;99019.64;;;4.98;64.28
76794;BME280;65745;50.278;18.192;2022-12-08T12:37:38;99017.98;;;5.00;64.08
76794;BME280;65745;50.278;18.192;2022-12-08T12:40:18;99015.31;;;4.96;63.70
76794;BME280;65745;50.278;18.192;2022-12-08T12:43:12;99014.84;;;4.91;63.78
76794;BME280;65745;50.278;18.192;2022-12-08T12:45:45;99012.16;;;4.93;63.31
76794;BME280;65745;50.278;18.192;2022-12-08T12:48:26;99013.08;;;4.89;63.72
76794;BME280;65745;50.278;18.192;2022-12-08T12:50:59;99008.67;;;4.85;63.67
76794;BME280;65745;50.278;18.192;2022-12-08T12:53:50;99007.00;;;4.80;63.84
76794;BME280;65745;50.278;18.192;2022-12-08T12:56:47;99005.66;;;4.75;64.04
76794;BME280;65745;50.278;18.192;2022-12-08T12:59:43;99004.98;;;4.75;63.71
76794;BME280;65745;50.278;18.192;2022-12-08T13:02:26;99002.80;;;4.70;63.55
76794;BME280;65745;50.278;18.192;2022-12-08T13:05:06;99000.76;;;4.64;63.65
76794;BME280;65745;50.278;18.192;2022-12-08T13:07:44;98996.33;;;4.58;63.89
76794;BME280;65745;50.278;18.192;2022-12-08T13:10:23;98992.27;;;4.54;63.91
76794;BME280;65745;50.278;18.192;2022-12-08T13:13:16;98988.55;;;4.49;64.00
76794;BME280;65745;50.278;18.192;2022-12-08T13:15:51;98989.20;;;4.48;64.22
76794;BME280;65745;50.278;18.192;2022-12-08T13:18:27;98988.62;;;4.45;64.26
76794;BME280;65745;50.278;18.192;2022-12-08T13:21:09;98982.73;;;4.42;64.49
76794;BME280;65745;50.278;18.192;2022-12-08T13:23:46;98984.03;;;4.46;64.68
76794;BME280;65745;50.278;18.192;2022-12-08T13:26:21;98984.98;;;4.60;64.93
76794;BME280;65745;50.278;18.192;2022-12-08T13:29:15;98981.70;;;4.66;65.05
76794;BME280;65745;50.278;18.192;2022-12-08T13:31:50;98981.91;;;4.73;65.21
76794;BME280;65745;50.278;18.192;2022-12-08T13:34:35;98977.25;;;4.77;65.23
76794;BME280;65745;50.278;18.192;2022-12-08T13:37:21;98984.33;;;4.86;65.15
76794;BME280;65745;50.278;18.192;2022-12-08T13:40:00;98983.15;;;4.87;65.26
76794;BME280;65745;50.278;18.192;2022-12-08T13:42:40;98985.89;;;4.88;64.98
76794;BME280;65745;50.278;18.192;2022-12-08T13:45:18;98989.42;;;4.85;64.85
76794;BME280;65745;50.278;18.192;2022-12-08T13:48:14;98988.33;;;4.83;64.70
76794;BME280;65745;50.278;18.192;2022-12-08T13:51:15;98987.86;;;4.79;64.86